Time;durP1;ratioP1;P1;durP2;ratioP2;P2;SDS_P1;SDS_P2;PMS_P1;PMS_P2;Temp;Humidity;BMP_temperature;BMP_pressure;BME280_temperature;BME280_humidity;BME280_pressure;Samples;Min_cycle;Max_cycle;Signal;HPM_P1;HPM_P2
2022/05/12 00:01:07;;;;;;;3.50;2.30;;;;;;;12.47;100.00;99407.63;1724416;82;20959;-58
2022/05/12 00:03:35;;;;;;;;;;;;;;;12.43;100.00;99403.30;1724179;83;21480;-59
2022/05/12 00:06:02;;;;;;;;;;;;;;;12.42;100.00;99404.97;1726285;82;20168;-60
2022/05/12 00:08:28;;;;;;;4.97;2.17;;;;;;;12.33;100.00;99400.70;1685817;85;20146;-59
2022/05/12 00:10:54;;;;;;;6.03;2.10;;;;;;;12.25;100.00;99404.09;1720774;82;21068;-59
2022/05/12 00:13:21;;;;;;;6.50;2.05;;;;;;;12.25;100.00;99403.27;1729157;82;20991;-59
2022/05/12 00:15:52;;;;;;;5.53;2.22;;;;;;;12.24;100.00;99398.91;1716756;81;21012;-59
2022/05/12 00:18:19;;;;;;;7.10;2.40;;;;;;;12.24;100.00;99396.18;1720128;82;21019;-59
2022/05/12 00:20:46;;;;;;;4.83;2.20;;;;;;;12.24;100.00;99395.63;1734614;81;21562;-59
2022/05/12 00:23:20;;;;;;;6.47;2.47;;;;;;;12.24;100.00;99390.72;1724833;82;21024;-59
2022/05/12 00:25:47;;;;;;;3.45;2.00;;;;;;;12.24;100.00;99391.54;1722412;82;21181;-59
2022/05/12 00:28:20;;;;;;;4.65;2.35;;;;;;;12.24;100.00;99387.99;1731944;82;21015;-60
2022/05/12 00:30:47;;;;;;;4.37;2.08;;;;;;;12.23;100.00;99395.36;1720623;81;21079;-59
2022/05/12 00:33:15;;;;;;;5.15;2.17;;;;;;;12.22;100.00;99391.00;1723899;82;21044;-59
2022/05/12 00:35:42;;;;;;;7.97;2.50;;;;;;;12.24;100.00;99387.99;1721866;82;21130;-60
2022/05/12 00:38:10;;;;;;;6.08;2.20;;;;;;;12.22;100.00;99386.91;1724983;82;21039;-59
2022/05/12 00:40:43;;;;;;;4.33;2.02;;;;;;;12.23;100.00;99391.27;1722369;81;21009;-59
2022/05/12 00:43:35;;;;;;;6.25;2.10;;;;;;;12.24;100.00;99393.45;1733936;82;21001;-60
2022/05/12 00:46:05;;;;;;;7.45;2.25;;;;;;;12.23;100.00;99389.09;1721851;82;21138;-58
2022/05/12 00:48:32;;;;;;;3.52;1.90;;;;;;;12.22;100.00;99386.91;1727657;82;21062;-58
2022/05/12 00:50:58;;;;;;;8.08;2.45;;;;;;;12.23;100.00;99387.17;1726635;81;21082;-58
2022/05/12 00:53:25;;;;;;;6.03;2.33;;;;;;;12.25;100.00;99386.90;1689169;85;21047;-59
2022/05/12 00:55:51;;;;;;;5.45;2.40;;;;;;;12.28;100.00;99388.49;1721633;82;21215;-58
2022/05/12 00:58:18;;;;;;;6.65;2.22;;;;;;;12.32;100.00;99386.00;1731194;81;20971;-59
2022/05/12 01:00:44;;;;;;;;;;;;;;;12.37;100.00;99384.00;1730547;82;21074;-58
2022/05/12 01:03:16;;;;;;;7.17;2.40;;;;;;;12.43;100.00;99385.56;1734322;82;20114;-59
2022/05/12 01:05:42;;;;;;;9.33;2.58;;;;;;;12.40;100.00;99378.50;1728398;82;21048;-59
2022/05/12 01:08:12;;;;;;;8.30;1.98;;;;;;;12.44;100.00;99377.63;1728535;82;20995;-58
2022/05/12 01:10:39;;;;;;;6.65;2.00;;;;;;;12.48;100.00;99375.95;1726478;81;21151;-59
2022/05/12 01:13:06;;;;;;;8.18;2.40;;;;;;;12.54;100.00;99374.53;1729878;82;21071;-59
2022/05/12 01:15:33;;;;;;;7.17;2.35;;;;;;;12.55;100.00;99376.14;1708490;82;21055;-58
2022/05/12 01:18:15;;;;;;;5.08;2.25;;;;;;;12.55;100.00;99367.94;1729637;81;21452;-59
2022/05/12 01:20:39;;;;;;;4.40;2.00;;;;;;;12.54;100.00;99369.86;1744366;81;21035;-58
2022/05/12 01:23:31;;;;;;;5.90;2.15;;;;;;;12.53;100.00;99367.44;1734013;82;21023;-58
2022/05/12 01:26:05;;;;;;;5.40;2.10;;;;;;;12.51;100.00;99366.90;1727699;82;21564;-59
2022/05/12 01:28:31;;;;;;;6.17;1.95;;;;;;;12.46;100.00;99375.44;1736478;82;21038;-60
2022/05/12 01:31:00;;;;;;;6.72;2.00;;;;;;;12.44;100.00;99374.91;1740778;81;21047;-60
2022/05/12 01:33:26;;;;;;;6.03;2.58;;;;;;;12.38;100.00;99372.53;1732005;81;21028;-59
2022/05/12 01:35:53;;;;;;;5.55;2.22;;;;;;;12.33;100.00;99373.41;1733666;82;21098;-60
2022/05/12 01:38:20;;;;;;;6.30;2.42;;;;;;;12.29;100.00;99366.11;1728235;81;21015;-60
2022/05/12 01:40:47;;;;;;;6.67;2.10;;;;;;;12.24;100.00;99358.80;1728455;82;21059;-60
2022/05/12 01:43:14;;;;;;;;;;;;;;;12.22;100.00;99361.56;1732153;82;21062;-60
2022/05/12 01:45:41;;;;;;;6.03;2.25;;;;;;;12.18;100.00;99365.97;1724534;82;20112;-59
2022/05/12 01:48:09;;;;;;;5.22;2.20;;;;;;;12.07;100.00;99354.91;1737567;81;21388;-60
2022/05/12 01:50:38;;;;;;;5.53;2.25;;;;;;;12.04;100.00;99354.95;1730571;81;21525;-60
2022/05/12 01:53:09;;;;;;;7.37;2.58;;;;;;;12.02;100.00;99350.31;1740408;82;21465;-60
2022/05/12 01:55:34;;;;;;;4.40;2.02;;;;;;;12.00;100.00;99351.17;1708543;83;21555;-59
2022/05/12 01:58:01;;;;;;;6.37;2.67;;;;;;;12.01;100.00;99350.63;1728377;81;21690;-60
2022/05/12 02:00:28;;;;;;;;;;;;;;;12.03;100.00;99351.13;1734938;81;21059;-59
2022/05/12 02:02:55;;;;;;;7.87;2.20;;;;;;;12.07;100.00;99349.45;1729698;82;20110;-60
2022/05/12 02:05:22;;;;;;;6.55;2.58;;;;;;;12.03;100.00;99346.49;1733087;82;21078;-60
2022/05/12 02:07:48;;;;;;;9.78;2.30;;;;;;;12.08;100.00;99346.41;1730832;81;20984;-60
2022/05/12 02:10:20;;;;;;;5.95;2.50;;;;;;;12.16;100.00;99351.23;1729777;82;21123;-60
2022/05/12 02:12:47;;;;;;;6.90;2.25;;;;;;;12.21;100.00;99351.19;1739815;82;21540;-59
2022/05/12 02:15:15;;;;;;;4.58;2.40;;;;;;;12.27;100.00;99351.93;1731438;82;21090;-60
2022/05/12 02:17:43;;;;;;;5.25;2.22;;;;;;;12.31;100.00;99359.25;1730778;82;21490;-59
2022/05/12 02:20:10;;;;;;;;;;;;;;;12.34;100.00;99354.56;1716959;82;21631;-58
2022/05/12 02:22:37;;;;;;;4.30;2.35;;;;;;;12.29;100.00;99342.91;1726439;82;20470;-58
2022/05/12 02:25:06;;;;;;;10.03;2.22;;;;;;;12.32;100.00;99356.79;1736786;80;21079;-58
2022/05/12 02:27:33;;;;;;;4.17;1.98;;;;;;;12.34;100.00;99354.56;1725309;82;20988;-58
2022/05/12 02:30:00;;;;;;;5.60;2.08;;;;;;;12.37;100.00;99354.53;1725123;82;21122;-58
2022/05/12 02:32:29;;;;;;;7.67;2.25;;;;;;;12.39;100.00;99357.24;1730851;82;21023;-59
2022/05/12 02:34:56;;;;;;;5.65;2.25;;;;;;;12.43;100.00;99364.30;1727622;81;21158;-58
2022/05/12 02:37:23;;;;;;;5.35;2.02;;;;;;;12.44;100.00;99357.70;1728489;82;21425;-59
2022/05/12 02:39:50;;;;;;;7.72;2.10;;;;;;;12.47;100.00;99358.48;1729003;83;21058;-58
2022/05/12 02:42:17;;;;;;;4.50;1.80;;;;;;;12.50;100.00;99358.47;1736564;81;20932;-59
2022/05/12 02:44:43;;;;;;;;;;;;;;;12.52;100.00;99360.34;1728209;82;21676;-58
2022/05/12 02:47:09;;;;;;;7.97;2.50;;;;;;;12.53;100.00;99358.70;1731269;82;20454;-58
2022/05/12 02:49:36;;;;;;;4.20;2.10;;;;;;;12.48;100.00;99359.57;1700935;83;21153;-58
2022/05/12 02:52:07;;;;;;;4.67;2.27;;;;;;;12.51;100.00;99369.08;1727303;82;21051;-58
2022/05/12 02:54:34;;;;;;;5.53;2.00;;;;;;;12.55;100.00;99357.02;1725361;82;21153;-58
2022/05/12 02:57:01;;;;;;;5.80;2.25;;;;;;;12.59;100.00;99355.33;1731949;82;21443;-58
2022/05/12 02:59:27;;;;;;;;;;;;;;;12.63;100.00;99356.38;1733651;81;21082;-58
2022/05/12 03:01:53;;;;;;;7.00;2.10;;;;;;;12.67;100.00;99357.41;1727765;81;20132;-59
2022/05/12 03:04:20;;;;;;;5.12;2.02;;;;;;;12.66;100.00;99363.97;1735675;82;21646;-59
2022/05/12 03:06:46;;;;;;;6.85;2.00;;;;;;;12.71;100.00;99360.64;1730068;82;20943;-59
2022/05/12 03:09:13;;;;;;;4.40;2.27;;;;;;;12.76;100.00;99364.64;1734813;81;21046;-58
2022/05/12 03:11:40;;;;;;;5.28;1.80;;;;;;;12.81;100.00;99363.22;1732144;82;21058;-59
2022/05/12 03:14:07;;;;;;;6.92;2.50;;;;;;;12.88;100.00;99366.94;1728780;82;21129;-59
2022/05/12 03:16:34;;;;;;;4.75;1.70;;;;;;;12.93;100.00;99353.22;1731777;82;21003;-59
2022/05/12 03:19:01;;;;;;;6.37;1.85;;;;;;;12.98;100.00;99355.31;1728281;82;21060;-58
2022/05/12 03:21:28;;;;;;;6.78;2.08;;;;;;;13.05;100.00;99359.03;1727225;82;21044;-59
2022/05/12 03:23:54;;;;;;;;;;;;;;;13.14;100.00;99360.58;1732419;81;21494;-59
2022/05/12 03:26:22;;;;;;;5.70;2.10;;;;;;;13.19;100.00;99355.83;1727912;82;20123;-59
2022/05/12 03:28:49;;;;;;;6.17;2.15;;;;;;;13.20;100.00;99353.91;1727428;82;21592;-58
2022/05/12 03:31:15;;;;;;;;;;;;;;;13.28;100.00;99358.16;1737829;82;21101;-59
2022/05/12 03:33:42;;;;;;;6.50;2.07;;;;;;;13.36;100.00;99356.09;1732363;82;20103;-58
2022/05/12 03:36:09;;;;;;;5.28;1.85;;;;;;;13.41;100.00;99359.30;1729949;81;21003;-59
2022/05/12 03:38:36;;;;;;;5.78;2.02;;;;;;;13.53;100.00;99361.57;1741780;82;21020;-59
2022/05/12 03:41:02;;;;;;;;;;;;;;;13.67;100.00;99358.31;1731842;82;21083;-59
2022/05/12 03:46:14;;;;;;;4.60;2.02;;;;;;;13.85;100.00;99350.02;1735975;82;21058;-58
2022/05/12 03:48:41;;;;;;;5.90;1.82;;;;;;;13.98;100.00;99349.78;1732583;82;20995;-57
2022/05/12 03:51:08;;;;;;;;;;;;;;;14.10;100.00;99347.92;1733556;82;21541;-57
2022/05/12 03:53:35;;;;;;;3.40;1.62;;;;;;;14.19;100.00;99349.64;1735852;81;20115;-58
2022/05/12 03:56:04;;;;;;;4.08;2.00;;;;;;;14.21;100.00;99350.69;1735307;81;21055;-58
2022/05/12 03:58:31;;;;;;;8.93;2.00;;;;;;;14.31;100.00;99350.50;1728988;82;21523;-58
2022/05/12 04:00:59;;;;;;;8.80;2.27;;;;;;;14.41;100.00;99349.77;1743757;82;21003;-58
2022/05/12 04:03:26;;;;;;;6.72;2.27;;;;;;;14.51;100.00;99345.98;1691449;83;21435;-58
2022/05/12 04:05:55;;;;;;;6.75;1.67;;;;;;;14.67;100.00;99351.92;1672627;85;21543;-58
2022/05/12 04:08:22;;;;;;;4.83;1.80;;;;;;;14.95;100.00;99357.03;1673373;85;21004;-58
2022/05/12 04:10:49;;;;;;;4.20;1.55;;;;;;;15.29;100.00;99361.18;1693391;84;21054;-61
2022/05/12 04:13:16;;;;;;;8.30;2.02;;;;;;;15.63;100.00;99352.39;1679426;84;20983;-58
2022/05/12 04:15:42;;;;;;;5.72;1.90;;;;;;;16.06;100.00;99349.86;1673573;84;21153;-58
2022/05/12 04:18:09;;;;;;;5.12;1.80;;;;;;;16.53;100.00;99344.11;1673049;85;21039;-59
2022/05/12 04:20:37;;;;;;;5.12;1.80;;;;;;;17.04;93.54;99351.06;1682137;84;21095;-58
2022/05/12 04:23:04;;;;;;;4.33;1.85;;;;;;;17.56;91.50;99349.66;1688144;84;21059;-59
2022/05/12 04:25:30;;;;;;;4.78;1.80;;;;;;;18.07;83.93;99352.27;1712673;82;21094;-59
2022/05/12 04:27:58;;;;;;;4.15;1.70;;;;;;;18.53;75.19;99345.13;1717944;82;20975;-59
2022/05/12 04:30:26;;;;;;;6.10;1.98;;;;;;;18.91;70.37;99342.27;1708965;82;21075;-58
2022/05/12 04:32:53;;;;;;;4.95;1.40;;;;;;;19.28;63.38;99342.09;1717608;82;21585;-58
2022/05/12 04:35:20;;;;;;;7.85;1.90;;;;;;;19.65;62.10;99330.66;1714894;81;21077;-57
2022/05/12 04:37:50;;;;;;;6.12;1.65;;;;;;;19.90;57.75;99335.65;1711356;82;21023;-58
2022/05/12 04:40:24;;;;;;;7.80;1.65;;;;;;;20.15;57.25;99335.10;1712919;82;21083;-58
2022/05/12 04:42:52;;;;;;;4.22;1.87;;;;;;;20.40;53.07;99335.38;1715576;82;21114;-58
2022/05/12 04:45:20;;;;;;;5.33;1.90;;;;;;;20.64;51.16;99329.00;1685689;84;21047;-58
2022/05/12 04:47:47;;;;;;;5.40;1.77;;;;;;;20.91;48.90;99333.78;1714327;82;21370;-58
2022/05/12 04:50:19;;;;;;;5.42;1.82;;;;;;;21.10;47.43;99329.00;1714957;82;21123;-57
2022/05/12 04:52:46;;;;;;;7.33;2.10;;;;;;;21.23;46.59;99323.67;1720294;82;20977;-57
2022/05/12 04:55:14;;;;;;;7.58;1.55;;;;;;;21.41;45.62;99327.75;1712354;82;21063;-57
2022/05/12 04:57:44;;;;;;;6.05;2.08;;;;;;;21.62;46.59;99323.37;1711782;82;21047;-54
2022/05/12 05:00:18;;;;;;;7.12;1.85;;;;;;;21.81;43.10;99323.50;1718583;82;21039;-54
2022/05/12 05:02:45;;;;;;;11.22;1.80;;;;;;;21.98;43.58;99326.53;1711872;82;21165;-58
2022/05/12 05:05:12;;;;;;;9.60;1.70;;;;;;;22.22;43.66;99320.23;1692466;83;21076;-57
2022/05/12 05:07:39;;;;;;;5.92;1.92;;;;;;;22.42;41.75;99318.92;1713404;82;20936;-58
2022/05/12 05:10:08;;;;;;;8.70;1.90;;;;;;;22.63;40.88;99321.61;1714833;82;21029;-58
2022/05/12 05:12:35;;;;;;;8.38;2.20;;;;;;;22.89;42.41;99319.62;1710010;82;21570;-59
2022/05/12 05:15:04;;;;;;;8.23;1.70;;;;;;;23.62;40.59;99322.36;1710831;82;21027;-59
2022/05/12 05:17:31;;;;;;;7.28;1.70;;;;;;;23.62;40.59;99322.36;1713329;83;21007;-57
2022/05/12 05:19:58;;;;;;;5.10;1.62;;;;;;;23.98;39.00;99314.66;1717729;82;21035;-59
2022/05/12 05:22:25;;;;;;;6.10;1.85;;;;;;;24.26;39.97;99320.15;1717868;82;21040;-59
2022/05/12 05:24:52;;;;;;;7.10;1.90;;;;;;;24.45;38.73;99313.66;1717394;82;21095;-59
2022/05/12 05:27:18;;;;;;;5.10;1.85;;;;;;;24.46;38.79;99308.33;1717293;82;21590;-58
2022/05/12 05:29:45;;;;;;;8.28;1.90;;;;;;;24.16;37.00;99306.84;1715499;81;21075;-58
2022/05/12 05:32:12;;;;;;;5.00;1.90;;;;;;;23.82;37.28;99303.66;1690961;83;21560;-58
2022/05/12 05:34:38;;;;;;;6.40;1.87;;;;;;;23.49;39.28;99297.89;1684936;85;21065;-58
2022/05/12 05:37:04;;;;;;;5.33;2.05;;;;;;;23.27;41.43;99297.45;1684873;85;21120;-58
2022/05/12 05:39:31;;;;;;;6.97;1.87;;;;;;;23.31;41.97;99296.12;1693209;84;21074;-57
2022/05/12 05:42:02;;;;;;;4.78;1.80;;;;;;;23.52;41.25;99291.59;1684235;84;21535;-58
2022/05/12 05:44:32;;;;;;;4.47;1.50;;;;;;;23.69;41.77;99286.95;1672668;84;21433;-58
2022/05/12 05:46:58;;;;;;;6.50;1.80;;;;;;;23.89;44.00;99287.09;1672443;84;21074;-58
2022/05/12 05:49:25;;;;;;;4.53;1.62;;;;;;;24.26;42.69;99288.75;1682615;83;22112;-58
2022/05/12 05:54:37;;;;;;;3.65;1.50;;;;;;;24.83;38.60;99271.48;1672827;84;21093;-57
2022/05/12 05:57:04;;;;;;;4.95;1.70;;;;;;;25.07;40.35;99276.01;1675271;85;21096;-58
2022/05/12 05:59:31;;;;;;;4.17;1.40;;;;;;;25.42;40.80;99259.48;1682342;84;21586;-58
2022/05/12 06:01:58;;;;;;;5.05;1.82;;;;;;;25.67;37.10;99261.37;1683161;84;21082;-59
2022/05/12 06:04:24;;;;;;;5.67;1.72;;;;;;;25.78;37.71;99260.67;1675890;84;21445;-59
2022/05/12 06:06:51;;;;;;;6.28;1.85;;;;;;;25.93;37.10;99266.59;1670403;85;21593;-58
2022/05/12 06:09:19;;;;;;;6.30;1.42;;;;;;;26.14;35.55;99259.79;1672715;83;21090;-58
2022/05/12 06:11:46;;;;;;;8.00;1.70;;;;;;;26.17;34.81;99254.27;1683292;84;21558;-58
2022/05/12 06:14:14;;;;;;;7.00;1.77;;;;;;;26.16;34.87;99250.42;1687898;83;21087;-58
2022/05/12 06:16:42;;;;;;;4.58;2.08;;;;;;;26.16;34.27;99242.06;1688931;85;21019;-58
2022/05/12 06:19:08;;;;;;;7.75;1.95;;;;;;;26.09;34.27;99242.00;1686175;83;21043;-58
2022/05/12 06:21:36;;;;;;;5.45;1.98;;;;;;;26.02;35.39;99246.13;1681966;84;21030;-57
2022/05/12 06:24:03;;;;;;;3.37;1.90;;;;;;;26.11;35.34;99246.00;1663488;84;21063;-59
2022/05/12 06:26:30;;;;;;;6.40;2.72;;;;;;;26.17;35.67;99247.30;1719237;82;21437;-58
2022/05/12 06:28:58;;;;;;;8.00;1.85;;;;;;;26.14;35.62;99245.84;1724806;83;21030;-57
2022/05/12 06:31:25;;;;;;;4.15;1.75;;;;;;;25.93;34.83;99246.48;1724672;83;21035;-58
2022/05/12 06:33:52;;;;;;;8.28;3.12;;;;;;;25.75;36.83;99241.34;1725964;81;21481;-57
2022/05/12 06:36:19;;;;;;;7.83;3.55;;;;;;;25.83;37.16;99236.01;1728263;81;21641;-59
2022/05/12 06:38:47;;;;;;;6.15;2.00;;;;;;;26.10;38.12;99231.87;1725809;82;21051;-57
2022/05/12 06:41:14;;;;;;;5.90;2.00;;;;;;;26.26;35.96;99238.57;1706507;83;21007;-58
2022/05/12 06:43:45;;;;;;;5.97;2.10;;;;;;;26.21;36.34;99235.57;1725080;82;21098;-57
2022/05/12 06:46:17;;;;;;;7.55;2.00;;;;;;;26.35;37.54;99224.29;1700463;83;21103;-57
2022/05/12 06:48:46;;;;;;;5.22;2.20;;;;;;;26.63;37.02;99230.03;1668066;84;20999;-57
2022/05/12 06:51:15;;;;;;;8.08;1.98;;;;;;;26.78;37.05;99232.30;1727853;82;21133;-57
2022/05/12 06:53:41;;;;;;;7.25;1.85;;;;;;;26.90;35.96;99223.59;1726799;81;21031;-56
2022/05/12 06:56:08;;;;;;;11.78;2.42;;;;;;;27.06;36.17;99221.28;1730671;81;21054;-57
2022/05/12 06:58:36;;;;;;;4.55;1.90;;;;;;;27.18;38.46;99224.50;1726747;81;21011;-58
2022/05/12 07:01:03;;;;;;;8.48;1.90;;;;;;;27.45;37.25;99221.41;1729340;81;21062;-57
2022/05/12 07:03:30;;;;;;;5.85;1.95;;;;;;;27.66;37.08;99222.83;1724767;83;21510;-58
2022/05/12 07:05:57;;;;;;;4.80;1.90;;;;;;;27.86;35.69;99224.03;1706487;83;21102;-56
2022/05/12 07:08:26;;;;;;;5.53;2.10;;;;;;;27.94;35.64;99216.45;1740187;82;21450;-57
2022/05/12 07:10:52;;;;;;;6.78;1.95;;;;;;;27.82;33.83;99219.03;1738005;81;21673;-57
2022/05/12 07:13:20;;;;;;;6.28;2.08;;;;;;;27.75;36.21;99217.63;1728451;82;20986;-57
2022/05/12 07:15:49;;;;;;;7.78;2.27;;;;;;;27.81;35.05;99211.06;1724845;83;21585;-56
2022/05/12 07:18:16;;;;;;;7.75;1.60;;;;;;;27.85;34.79;99213.23;1724971;83;21042;-57
2022/05/12 07:28:59;;;;;;;7.75;1.95;;;;;;;28.08;36.93;99213.67;1724692;83;21654;-58
2022/05/12 07:31:26;;;;;;;5.00;2.40;;;;;;;28.16;35.06;99210.44;1724542;82;21019;-58
2022/05/12 07:33:54;;;;;;;5.67;2.10;;;;;;;28.20;35.74;99212.46;1725000;83;21405;-58
2022/05/12 07:36:27;;;;;;;6.33;2.10;;;;;;;28.37;35.93;99215.23;1724952;83;21062;-57
2022/05/12 07:38:57;;;;;;;9.90;2.20;;;;;;;28.51;36.21;99210.99;1723372;82;21425;-58
2022/05/12 07:41:24;;;;;;;5.28;2.17;;;;;;;28.66;35.18;99194.33;1722733;82;21048;-58
2022/05/12 07:43:51;;;;;;;8.15;2.37;;;;;;;28.82;34.56;99200.11;1676137;85;21010;-58
2022/05/12 07:46:21;;;;;;;4.83;2.30;;;;;;;28.73;34.77;99194.95;1716347;83;21455;-58
2022/05/12 07:48:49;;;;;;;4.12;2.20;;;;;;;28.75;35.65;99197.33;1726487;81;20982;-58
2022/05/12 07:51:17;;;;;;;5.00;2.30;;;;;;;28.89;34.55;99186.87;1713595;83;21054;-57
2022/05/12 07:53:47;;;;;;;8.03;2.77;;;;;;;29.05;34.93;99180.17;1721811;82;21042;-57
2022/05/12 07:56:21;;;;;;;5.35;2.52;;;;;;;29.07;36.07;99175.56;1707317;83;21067;-57
2022/05/12 07:58:48;;;;;;;6.90;2.50;;;;;;;29.07;34.56;99177.77;1720556;81;21090;-58
2022/05/12 08:01:15;;;;;;;3.95;2.08;;;;;;;29.11;35.06;99167.95;1725210;82;21063;-57
2022/05/12 08:03:44;;;;;;;5.00;2.10;;;;;;;29.15;35.09;99172.33;1724700;83;21031;-57
2022/05/12 08:06:15;;;;;;;7.22;2.08;;;;;;;29.19;35.03;99164.50;1706153;82;21015;-56
2022/05/12 08:08:44;;;;;;;8.65;2.20;;;;;;;29.23;37.29;99161.84;1705889;81;20971;-58
2022/05/12 08:11:12;;;;;;;7.15;2.35;;;;;;;29.30;35.96;99161.06;1725810;81;21525;-58
2022/05/12 08:13:39;;;;;;;5.22;2.00;;;;;;;29.36;36.61;99155.20;1730484;82;20979;-58
2022/05/12 08:16:06;;;;;;;7.33;2.08;;;;;;;29.53;35.73;99154.27;1730671;82;21388;-58
2022/05/12 08:18:34;;;;;;;7.33;1.90;;;;;;;29.57;34.97;99155.04;1720575;81;21003;-58
2022/05/12 08:21:01;;;;;;;6.33;1.90;;;;;;;29.62;34.91;99147.57;1731294;82;21003;-59
2022/05/12 08:24:12;;;;;;;4.50;1.77;;;;;;;29.60;35.30;99158.41;1802060;79;23361;-57
2022/05/12 08:26:38;;;;;;;7.72;2.10;;;;;;;29.57;35.04;99150.23;1733771;81;21545;-57
2022/05/12 08:29:08;;;;;;;11.03;2.15;;;;;;;29.60;34.59;99151.41;1730567;81;21070;-56
2022/05/12 08:31:35;;;;;;;6.20;2.12;;;;;;;29.58;35.93;99151.03;1732372;81;21054;-57
2022/05/12 08:34:01;;;;;;;6.35;1.92;;;;;;;29.66;35.51;99155.35;1749299;81;21086;-57
2022/05/12 08:36:29;;;;;;;5.45;1.77;;;;;;;29.84;35.69;99139.20;1731950;81;21054;-57
2022/05/12 08:38:55;;;;;;;8.03;2.17;;;;;;;29.87;34.31;99138.96;1749716;81;20971;-57
2022/05/12 08:41:50;;;;;;;6.28;2.33;;;;;;;29.78;36.74;99147.05;1753913;81;21039;-57
2022/05/12 08:44:20;;;;;;;7.45;2.22;;;;;;;29.79;36.43;99145.23;1730866;83;21034;-57
2022/05/12 08:46:56;;;;;;;5.05;1.90;;;;;;;29.95;34.49;99144.10;1735229;81;20967;-58
2022/05/12 08:49:45;;;;;;;8.05;1.98;;;;;;;30.00;34.95;99149.28;1730861;83;21046;-57
2022/05/12 08:52:32;;;;;;;5.10;2.50;;;;;;;29.95;36.08;99144.10;1733233;81;21077;-57
2022/05/12 08:55:28;;;;;;;11.33;2.72;;;;;;;29.95;34.98;99142.70;1731938;81;21093;-58
2022/05/12 08:58:10;;;;;;;5.78;2.10;;;;;;;30.05;34.90;99136.18;1753679;81;21585;-57
2022/05/12 09:01:01;;;;;;;6.75;2.65;;;;;;;30.01;34.88;99140.23;1753187;81;21526;-56
2022/05/12 09:03:40;;;;;;;5.72;2.20;;;;;;;29.92;36.36;99128.70;1697659;81;21351;-57
2022/05/12 09:06:24;;;;;;;9.53;2.17;;;;;;;29.94;36.63;99120.66;1734955;81;21051;-56
2022/05/12 09:09:05;;;;;;;8.10;2.30;;;;;;;30.10;36.17;99113.28;1760738;81;21065;-57
2022/05/12 09:11:59;;;;;;;9.08;2.33;;;;;;;30.26;35.22;99104.27;1760889;81;21011;-57
2022/05/12 09:14:57;;;;;;;6.28;2.62;;;;;;;30.23;36.59;99102.91;1735178;81;21514;-56
2022/05/12 09:17:28;;;;;;;5.80;2.22;;;;;;;30.18;36.63;99111.20;1730195;81;21040;-57
2022/05/12 09:19:54;;;;;;;5.33;2.45;;;;;;;30.19;36.71;99100.74;1730680;83;21080;-57
2022/05/12 09:22:25;;;;;;;6.35;2.45;;;;;;;30.05;36.79;99096.89;1730843;81;21085;-57
2022/05/12 09:24:52;;;;;;;7.08;2.45;;;;;;;30.03;37.97;99104.14;1741600;82;21895;-57
2022/05/12 09:27:21;;;;;;;5.80;2.42;;;;;;;29.96;37.06;99089.59;1713664;82;20968;-56
2022/05/12 09:29:49;;;;;;;6.03;2.80;;;;;;;29.82;37.33;99081.89;1701037;82;21079;-57
2022/05/12 09:32:23;;;;;;;5.62;2.40;;;;;;;29.73;36.75;99087.17;1726245;82;20983;-58
2022/05/12 09:35:23;;;;;;;5.35;2.40;;;;;;;29.64;38.81;99087.07;1729898;82;21015;-56
2022/05/12 09:37:50;;;;;;;10.13;2.80;;;;;;;29.60;38.20;99075.69;1735875;82;21003;-58
2022/05/12 09:40:35;;;;;;;7.35;2.42;;;;;;;29.39;38.21;99062.66;1727900;82;21075;-58
2022/05/12 09:43:20;;;;;;;8.88;2.50;;;;;;;29.29;38.20;99065.55;1737532;82;21119;-58
2022/05/12 09:46:14;;;;;;;10.93;2.87;;;;;;;29.22;38.42;99067.78;1729877;82;21055;-58
2022/05/12 09:48:40;;;;;;;7.95;2.40;;;;;;;29.21;38.50;99075.19;1682910;84;21059;-58
2022/05/12 09:51:30;;;;;;;6.62;2.50;;;;;;;29.10;37.59;99068.27;1732049;82;21514;-58
2022/05/12 09:54:29;;;;;;;5.45;2.60;;;;;;;29.02;38.45;99053.50;1709758;82;21038;-58
2022/05/12 09:57:20;;;;;;;6.33;2.40;;;;;;;28.93;37.42;99050.98;1727479;82;21011;-58
2022/05/12 09:59:56;;;;;;;10.08;2.80;;;;;;;28.84;38.04;99052.05;1714650;84;21104;-58
2022/05/12 10:08:22;;;;;;;8.05;2.80;;;;;;;28.70;38.80;99045.91;1692667;83;20998;-57
2022/05/12 10:10:53;;;;;;;6.80;2.62;;;;;;;28.68;41.00;99042.73;1741588;82;21008;-58
2022/05/12 10:13:40;;;;;;;9.43;2.50;;;;;;;28.75;40.23;99048.89;1741394;82;21546;-57
2022/05/12 10:16:08;;;;;;;7.50;3.00;;;;;;;28.76;37.95;99040.09;1731345;82;21010;-57
2022/05/12 10:18:48;;;;;;;6.42;2.70;;;;;;;28.78;39.12;99034.06;1715031;83;21000;-58
2022/05/12 10:21:25;;;;;;;5.80;3.15;;;;;;;28.78;39.14;99036.27;1716338;82;21452;-58
2022/05/12 10:24:12;;;;;;;8.38;2.60;;;;;;;28.80;38.56;99016.27;1744268;81;21027;-58
2022/05/12 10:26:54;;;;;;;9.30;2.75;;;;;;;28.90;38.49;99026.59;1730881;82;21013;-57
2022/05/12 10:30:04;;;;;;;9.75;2.70;;;;;;;28.79;37.74;99018.86;1734002;82;21160;-58
2022/05/12 10:32:48;;;;;;;5.05;2.80;;;;;;;28.78;39.14;99020.06;1718047;82;20952;-57
2022/05/12 10:35:26;;;;;;;5.53;2.60;;;;;;;28.87;38.72;99021.22;1720572;82;21067;-57
2022/05/12 10:38:07;;;;;;;7.12;2.40;;;;;;;28.90;37.96;99023.80;1685559;82;21019;-58
2022/05/12 10:40:48;;;;;;;10.68;2.92;;;;;;;28.96;40.77;99010.93;1718289;82;21011;-58
2022/05/12 10:43:47;;;;;;;12.55;2.98;;;;;;;29.08;39.32;99010.45;1722241;83;21069;-58
2022/05/12 10:46:21;;;;;;;7.45;2.80;;;;;;;29.08;39.85;99001.44;1736486;82;21061;-56
2022/05/12 10:48:55;;;;;;;5.90;2.60;;;;;;;29.05;38.64;99003.64;1694588;84;21047;-57
2022/05/12 10:51:36;;;;;;;6.62;2.60;;;;;;;29.00;40.14;98988.69;1718093;82;21045;-56
2022/05/12 10:54:19;;;;;;;11.15;2.77;;;;;;;28.97;38.14;98985.31;1721220;82;21063;-56
2022/05/12 10:57:19;;;;;;;12.37;2.80;;;;;;;28.87;38.93;98984.80;1718638;82;21086;-57
2022/05/12 11:00:17;;;;;;;7.87;2.70;;;;;;;28.81;38.77;98980.83;1726585;82;21086;-60
2022/05/12 11:02:48;;;;;;;7.28;2.70;;;;;;;28.76;39.07;98971.48;1731004;82;21063;-57
2022/05/12 11:05:31;;;;;;;6.10;2.83;;;;;;;28.87;40.18;98971.40;1730233;82;21573;-58
2022/05/12 11:08:15;;;;;;;10.08;2.90;;;;;;;28.97;38.35;98967.11;1721219;82;21581;-56
2022/05/12 11:11:10;;;;;;;10.48;2.50;;;;;;;29.02;37.33;98949.03;1721183;82;21082;-57
2022/05/12 11:14:08;;;;;;;9.73;2.60;;;;;;;29.00;37.81;98947.27;1741126;81;21048;-56
2022/05/12 11:16:43;;;;;;;9.68;2.65;;;;;;;28.99;38.33;98937.27;1741215;82;21057;-58
2022/05/12 11:19:21;;;;;;;7.57;2.67;;;;;;;28.97;36.75;98936.89;1724646;82;21138;-57
2022/05/12 11:22:10;;;;;;;8.05;2.50;;;;;;;28.93;38.72;98940.33;1744095;82;21240;-57
2022/05/12 11:24:52;;;;;;;9.03;2.85;;;;;;;29.01;38.12;98927.85;1744045;81;21047;-58
2022/05/12 11:27:46;;;;;;;7.87;2.80;;;;;;;29.13;36.63;98935.13;1742527;82;20988;-58
2022/05/12 11:30:34;;;;;;;5.40;2.12;;;;;;;29.18;36.95;98927.48;1720250;82;21047;-58
2022/05/12 11:33:24;;;;;;;9.90;2.50;;;;;;;29.21;36.00;98927.45;1714400;84;21107;-57
2022/05/12 11:35:54;;;;;;;8.95;2.70;;;;;;;29.23;35.22;98926.41;1730455;82;21111;-57
2022/05/12 11:38:42;;;;;;;6.95;2.50;;;;;;;29.12;36.04;98905.50;1731459;82;21044;-57
2022/05/12 11:41:35;;;;;;;10.10;2.45;;;;;;;29.06;37.01;98905.77;1693274;82;20964;-58
2022/05/12 11:44:25;;;;;;;17.02;2.52;;;;;;;28.97;36.11;98904.08;1735157;81;21003;-57
2022/05/12 11:47:33;;;;;;;7.75;2.42;;;;;;;28.86;35.26;98896.37;1717328;82;20980;-59
2022/05/12 11:50:44;;;;;;;7.62;2.45;;;;;;;28.80;36.68;98902.23;1719236;82;21038;-57
2022/05/12 11:53:24;;;;;;;7.33;2.30;;;;;;;28.84;34.83;98899.41;1733369;82;21523;-57
2022/05/12 11:56:11;;;;;;;12.07;2.27;;;;;;;28.88;34.75;98893.94;1726296;82;21043;-56
2022/05/12 11:58:47;;;;;;;7.95;2.20;;;;;;;28.86;35.75;98882.97;1721736;82;21047;-56
2022/05/12 12:01:28;;;;;;;13.03;2.60;;;;;;;28.78;36.64;98871.63;1719023;82;21016;-56
2022/05/12 12:03:59;;;;;;;11.50;2.25;;;;;;;28.78;36.86;98864.02;1739803;82;21036;-56
2022/05/12 12:06:40;;;;;;;11.28;2.40;;;;;;;28.78;35.48;98849.22;1736153;82;21090;-57
2022/05/12 12:09:33;;;;;;;8.50;2.27;;;;;;;28.87;37.38;98869.16;1718896;82;21661;-57
2022/05/12 12:12:03;;;;;;;11.45;2.40;;;;;;;29.00;34.66;98855.61;1719602;82;21050;-57
2022/05/12 12:14:55;;;;;;;11.45;2.35;;;;;;;29.02;36.09;98857.98;1735531;82;21011;-57